Time;durP1;ratioP1;P1;durP2;ratioP2;P2;SDS_P1;SDS_P2;PMS_P1;PMS_P2;Temp;Humidity;BMP_temperature;BMP_pressure;BME280_temperature;BME280_humidity;BME280_pressure;Samples;Min_cycle;Max_cycle;Signal;HPM_P1;HPM_P2
2022/11/26 00:08:25;;;;;;;7.30;2.17;;;;;;;;;;20997536;28;20513;-59
2022/11/26 00:18:28;;;;;;;6.00;2.60;;;;;;;;;;20997648;28;20119;-58
2022/11/26 00:28:35;;;;;;;4.63;1.90;;;;;;;;;;20995385;28;20096;-62
2022/11/26 00:38:37;;;;;;;5.82;3.08;;;;;;;;;;20996273;28;20048;-59
2022/11/26 00:48:39;;;;;;;6.65;2.35;;;;;;;;;;20995298;28;20227;-59
2022/11/26 00:58:41;;;;;;;6.97;2.10;;;;;;;;;;20995268;28;20049;-60
2022/11/26 01:08:44;;;;;;;7.05;2.55;;;;;;;;;;20995247;28;20056;-59
2022/11/26 01:18:47;;;;;;;7.22;3.58;;;;;;;;;;20993685;28;20124;-59
2022/11/26 01:28:50;;;;;;;9.00;2.60;;;;;;;;;;20992903;28;20053;-59
2022/11/26 01:38:53;;;;;;;4.20;2.42;;;;;;;;;;21002125;28;20048;-59
2022/11/26 01:49:14;;;;;;;2.30;1.58;;;;;;;;;;21007154;28;20095;-59
2022/11/26 01:59:32;;;;;;;7.60;1.95;;;;;;;;;;21006640;28;20045;-58
2022/11/26 02:09:33;;;;;;;4.55;2.05;;;;;;;;;;21006367;28;20400;-58
2022/11/26 02:19:56;;;;;;;5.15;2.00;;;;;;;;;;21006039;28;20465;-59
2022/11/26 02:30:11;;;;;;;4.18;1.90;;;;;;;;;;21004481;28;20476;-59
2022/11/26 02:40:17;;;;;;;7.63;2.00;;;;;;;;;;21004838;28;20044;-60
2022/11/26 02:50:26;;;;;;;4.63;1.95;;;;;;;;;;21002051;28;20052;-57
2022/11/26 03:00:28;;;;;;;4.45;2.28;;;;;;;;;;21002421;28;20098;-58
2022/11/26 03:10:39;;;;;;;5.57;2.03;;;;;;;;;;21001543;28;20131;-58
2022/11/26 03:20:43;;;;;;;7.25;2.78;;;;;;;;;;21000866;28;20136;-59
2022/11/26 03:30:48;;;;;;;5.88;2.38;;;;;;;;;;20999985;28;20451;-59
2022/11/26 03:41:00;;;;;;;14.20;5.28;;;;;;;;;;21000073;28;20052;-59
2022/11/26 03:51:04;;;;;;;15.35;5.63;;;;;;;;;;20998827;28;20532;-59
2022/11/26 04:01:12;;;;;;;7.15;3.05;;;;;;;;;;20997366;28;20090;-60
2022/11/26 04:11:16;;;;;;;12.13;3.88;;;;;;;;;;20998043;28;20491;-59
2022/11/26 04:21:22;;;;;;;8.13;2.50;;;;;;;;;;20996575;28;20052;-59
2022/11/26 04:31:28;;;;;;;7.43;2.20;;;;;;;;;;20995868;28;20127;-61
2022/11/26 04:41:31;;;;;;;5.35;2.60;;;;;;;;;;20996589;28;20055;-59
2022/11/26 04:51:43;;;;;;;6.18;2.45;;;;;;;;;;20995395;28;20044;-58
2022/11/26 05:01:45;;;;;;;4.55;2.58;;;;;;;;;;20995084;28;20411;-58
2022/11/26 05:11:47;;;;;;;3.88;2.20;;;;;;;;;;21001243;28;20523;-58
2022/11/26 05:21:50;;;;;;;6.72;2.10;;;;;;;;;;21010578;28;20506;-59
2022/11/26 05:31:52;;;;;;;6.45;2.60;;;;;;;;;;21009147;28;20045;-59
2022/11/26 05:41:54;;;;;;;6.22;2.63;;;;;;;;;;21009050;28;20055;-61
2022/11/26 05:51:56;;;;;;;5.97;2.47;;;;;;;;;;21008523;28;20542;-60
2022/11/26 06:01:58;;;;;;;7.32;2.45;;;;;;;;;;20990247;28;20131;-61
2022/11/26 06:12:01;;;;;;;4.85;1.83;;;;;;;;;;21006006;28;20175;-60
2022/11/26 06:22:03;;;;;;;6.03;1.98;;;;;;;;;;21005297;28;20049;-60
2022/11/26 06:32:05;;;;;;;5.80;2.55;;;;;;;;;;21004684;28;20052;-60
2022/11/26 06:42:08;;;;;;;3.88;1.70;;;;;;;;;;21004197;28;20088;-59
2022/11/26 06:52:10;;;;;;;4.28;1.95;;;;;;;;;;21003762;28;20048;-60
2022/11/26 07:02:12;;;;;;;7.28;1.90;;;;;;;;;;21002127;28;20052;-60
2022/11/26 07:12:14;;;;;;;8.43;4.13;;;;;;;;;;21001646;28;20055;-61
2022/11/26 07:22:16;;;;;;;7.13;2.30;;;;;;;;;;21001391;28;20132;-61
2022/11/26 07:32:17;;;;;;;3.72;1.90;;;;;;;;;;20998651;28;20078;-60
2022/11/26 07:42:20;;;;;;;7.38;3.40;;;;;;;;;;20999572;28;20062;-60
2022/11/26 07:52:22;;;;;;;5.38;2.00;;;;;;;;;;20998881;28;20132;-59
2022/11/26 08:02:23;;;;;;;5.28;2.15;;;;;;;;;;20997898;28;20189;-61
2022/11/26 08:12:26;;;;;;;4.47;2.25;;;;;;;;;;20997633;28;20045;-60
2022/11/26 08:22:29;;;;;;;4.43;1.98;;;;;;;;;;20997442;28;20216;-60
2022/11/26 08:32:31;;;;;;;8.98;2.58;;;;;;;;;;20996459;28;20052;-60
2022/11/26 08:42:33;;;;;;;6.90;2.13;;;;;;;;;;20995531;28;20044;-60
2022/11/26 08:52:35;;;;;;;7.57;2.83;;;;;;;;;;21012928;28;20044;-59
2022/11/26 09:02:37;;;;;;;5.35;2.67;;;;;;;;;;21011120;28;20052;-59
2022/11/26 09:12:39;;;;;;;5.47;2.53;;;;;;;;;;21010015;28;20044;-58
2022/11/26 09:22:41;;;;;;;7.00;2.88;;;;;;;;;;21009561;28;20044;-59
2022/11/26 09:32:42;;;;;;;7.68;4.32;;;;;;;;;;21007910;28;20118;-59
2022/11/26 09:42:57;;;;;;;5.88;2.20;;;;;;;;;;21009109;28;20098;-59
2022/11/26 09:53:04;;;;;;;7.03;2.75;;;;;;;;;;21008390;28;20044;-59
2022/11/26 10:03:12;;;;;;;7.13;2.60;;;;;;;;;;21002888;28;20052;-59
2022/11/26 10:13:20;;;;;;;8.38;2.25;;;;;;;;;;20974916;28;20416;-59
2022/11/26 10:23:31;;;;;;;6.40;2.85;;;;;;;;;;20992422;28;20056;-63
2022/11/26 10:33:37;;;;;;;5.68;2.05;;;;;;;;;;20993430;28;20060;-61
2022/11/26 10:43:39;;;;;;;7.13;2.40;;;;;;;;;;20999617;28;20080;-63
2022/11/26 10:53:51;;;;;;;7.82;2.28;;;;;;;;;;20999056;28;20048;-67
2022/11/26 11:03:55;;;;;;;10.10;3.05;;;;;;;;;;21002528;28;20056;-65
2022/11/26 11:13:58;;;;;;;6.78;2.58;;;;;;;;;;21002504;28;20070;-59
2022/11/26 11:24:07;;;;;;;6.00;3.40;;;;;;;;;;21000295;28;20500;-61
2022/11/26 11:34:18;;;;;;;9.98;2.88;;;;;;;;;;20999572;28;20419;-67
2022/11/26 11:44:25;;;;;;;9.55;2.28;;;;;;;;;;20999294;28;20448;-68
2022/11/26 11:54:30;;;;;;;6.68;2.55;;;;;;;;;;20997127;28;20128;-63
2022/11/26 12:04:35;;;;;;;5.78;1.90;;;;;;;;;;20997192;28;20416;-69
2022/11/26 12:14:40;;;;;;;7.43;2.28;;;;;;;;;;20996335;28;20093;-65
2022/11/26 12:24:47;;;;;;;7.97;2.92;;;;;;;;;;20995750;28;20099;-63
2022/11/26 12:34:51;;;;;;;6.72;2.80;;;;;;;;;;20994945;28;20044;-62
2022/11/26 12:44:56;;;;;;;4.82;2.42;;;;;;;;;;20996124;28;20097;-61
2022/11/26 12:55:12;;;;;;;6.97;2.30;;;;;;;;;;20995462;28;20045;-62
2022/11/26 13:05:16;;;;;;;3.95;2.10;;;;;;;;;;20994180;28;20058;-62
2022/11/26 13:15:25;;;;;;;9.25;3.22;;;;;;;;;;20993776;28;20048;-62
2022/11/26 13:25:30;;;;;;;5.32;3.30;;;;;;;;;;20994154;28;20058;-63
2022/11/26 13:35:35;;;;;;;10.85;3.33;;;;;;;;;;21004484;28;20052;-61
2022/11/26 13:46:00;;;;;;;6.53;3.03;;;;;;;;;;21010026;28;20041;-63
2022/11/26 13:56:04;;;;;;;6.82;3.10;;;;;;;;;;21008473;28;20127;-64
2022/11/26 14:06:06;;;;;;;11.73;7.10;;;;;;;;;;21007179;28;20135;-63
2022/11/26 14:16:09;;;;;;;7.15;2.70;;;;;;;;;;21006207;28;20052;-63
2022/11/26 14:26:33;;;;;;;8.55;3.10;;;;;;;;;;21005462;28;20449;-64
2022/11/26 14:36:35;;;;;;;6.63;2.55;;;;;;;;;;21004241;28;20412;-61
2022/11/26 14:46:37;;;;;;;8.88;2.70;;;;;;;;;;21003939;28;20087;-64
2022/11/26 14:56:40;;;;;;;4.88;1.92;;;;;;;;;;21003138;28;20099;-64
2022/11/26 15:06:42;;;;;;;6.18;3.00;;;;;;;;;;21001907;28;20048;-62
2022/11/26 15:16:44;;;;;;;9.48;2.35;;;;;;;;;;21001564;28;20114;-63
2022/11/26 15:26:47;;;;;;;8.45;4.28;;;;;;;;;;21000938;28;20053;-62
2022/11/26 15:36:48;;;;;;;35.65;15.85;;;;;;;;;;20998980;28;20116;-61
2022/11/26 15:46:51;;;;;;;6.50;2.30;;;;;;;;;;20998478;28;20086;-60
2022/11/26 15:56:57;;;;;;;6.57;3.17;;;;;;;;;;20997715;28;20093;-62
2022/11/26 16:07:10;;;;;;;5.18;2.65;;;;;;;;;;20996354;28;20135;-65
2022/11/26 16:17:13;;;;;;;5.68;2.60;;;;;;;;;;20995665;28;20059;-64
2022/11/26 16:27:21;;;;;;;10.55;4.07;;;;;;;;;;20995048;28;20060;-65
2022/11/26 16:37:24;;;;;;;7.93;3.45;;;;;;;;;;20995382;28;20055;-62
2022/11/26 16:47:28;;;;;;;7.00;3.13;;;;;;;;;;20994874;28;20048;-64
2022/11/26 16:57:30;;;;;;;23.02;12.25;;;;;;;;;;20995775;28;20045;-64
2022/11/26 17:07:37;;;;;;;8.15;3.58;;;;;;;;;;21000817;28;20139;-62
2022/11/26 17:17:39;;;;;;;10.35;4.55;;;;;;;;;;21010908;28;20109;-63
2022/11/26 17:27:42;;;;;;;10.27;4.38;;;;;;;;;;21007430;28;20071;-62
2022/11/26 17:37:44;;;;;;;14.85;5.03;;;;;;;;;;21007077;28;20078;-61
2022/11/26 17:47:46;;;;;;;12.40;5.20;;;;;;;;;;21008671;28;20057;-64
2022/11/26 17:57:48;;;;;;;12.38;5.40;;;;;;;;;;21006416;28;20044;-64
2022/11/26 18:07:50;;;;;;;11.68;5.63;;;;;;;;;;21006648;28;20145;-63
2022/11/26 18:17:53;;;;;;;16.85;6.15;;;;;;;;;;21004855;28;20166;-63
2022/11/26 18:27:55;;;;;;;15.93;4.65;;;;;;;;;;21002666;28;20064;-63
2022/11/26 18:37:57;;;;;;;8.85;4.07;;;;;;;;;;21003458;28;20044;-64
2022/11/26 18:48:00;;;;;;;15.95;6.57;;;;;;;;;;21002990;28;20181;-64
2022/11/26 18:58:01;;;;;;;15.63;7.22;;;;;;;;;;21002525;28;20102;-63
2022/11/26 19:08:03;;;;;;;16.08;7.60;;;;;;;;;;21001756;28;20055;-63
2022/11/26 19:18:05;;;;;;;43.13;19.83;;;;;;;;;;21000611;28;20044;-63
2022/11/26 19:28:07;;;;;;;46.30;18.83;;;;;;;;;;20998854;28;20088;-61
2022/11/26 19:38:09;;;;;;;40.58;14.05;;;;;;;;;;20999473;28;20541;-62
2022/11/26 19:48:10;;;;;;;44.00;14.65;;;;;;;;;;20998399;28;20127;-62
2022/11/26 19:58:12;;;;;;;15.95;7.22;;;;;;;;;;20997490;28;20056;-62
2022/11/26 20:08:14;;;;;;;37.67;20.92;;;;;;;;;;20996870;28;20076;-60
2022/11/26 20:18:16;;;;;;;17.50;7.32;;;;;;;;;;20994568;28;20045;-62
2022/11/26 20:28:17;;;;;;;9.80;4.93;;;;;;;;;;20994703;28;20095;-62
2022/11/26 20:38:19;;;;;;;9.77;4.65;;;;;;;;;;20994537;28;20135;-62
2022/11/26 20:48:20;;;;;;;13.68;5.38;;;;;;;;;;20994587;28;20053;-62
2022/11/26 20:58:23;;;;;;;11.43;4.53;;;;;;;;;;20993238;28;20045;-61
2022/11/26 21:08:25;;;;;;;8.75;4.38;;;;;;;;;;20993871;28;20052;-61
2022/11/26 21:18:27;;;;;;;9.18;4.05;;;;;;;;;;20993130;28;20060;-62
2022/11/26 21:28:29;;;;;;;9.05;3.85;;;;;;;;;;20993007;28;20127;-62
2022/11/26 21:38:31;;;;;;;9.70;5.07;;;;;;;;;;20994034;28;20400;-62
2022/11/26 21:48:36;;;;;;;10.88;5.10;;;;;;;;;;20992531;28;20067;-62
2022/11/26 21:58:38;;;;;;;11.27;5.25;;;;;;;;;;21005271;28;20504;-62
2022/11/26 22:08:40;;;;;;;7.95;3.70;;;;;;;;;;21006640;28;20384;-62
2022/11/26 22:18:43;;;;;;;10.05;4.30;;;;;;;;;;21005728;28;20079;-63
2022/11/26 22:28:45;;;;;;;13.63;5.88;;;;;;;;;;21004218;28;20457;-62
2022/11/26 22:38:47;;;;;;;17.23;7.55;;;;;;;;;;21004528;28;20481;-62
2022/11/26 22:48:56;;;;;;;13.88;6.35;;;;;;;;;;21004098;28;20490;-62
2022/11/26 22:58:58;;;;;;;12.57;4.90;;;;;;;;;;21003126;28;20419;-61
2022/11/26 23:08:59;;;;;;;17.25;5.88;;;;;;;;;;21000900;28;20451;-63
2022/11/26 23:19:03;;;;;;;8.88;4.00;;;;;;;;;;21001453;28;20041;-62
2022/11/26 23:29:05;;;;;;;6.70;3.80;;;;;;;;;;21000286;28;20524;-62
2022/11/26 23:39:09;;;;;;;6.75;3.42;;;;;;;;;;21000221;28;20041;-61
2022/11/26 23:49:11;;;;;;;5.40;3.10;;;;;;;;;;20999223;28;20048;-64
2022/11/26 23:59:13;;;;;;;7.30;3.80;;;;;;;;;;20998386;28;20047;-62
